Time;durP1;ratioP1;P1;durP2;ratioP2;P2;SDS_P1;SDS_P2;PMS_P1;PMS_P2;Temp;Humidity;BMP_temperature;BMP_pressure;BME280_temperature;BME280_humidity;BME280_pressure;Samples;Min_cycle;Max_cycle;Signal;HPM_P1;HPM_P2
2023/09/10 00:01:08;;;;;;;13.65;9.10;;;12.40;99.90;;;;;;5092656;28;20024;-84
2023/09/10 00:03:33;;;;;;;11.73;9.82;;;12.40;99.90;;;;;;5093986;28;20043;-83
2023/09/10 00:06:00;;;;;;;12.77;10.35;;;12.40;99.90;;;;;;5093662;28;20031;-83
2023/09/10 00:08:27;;;;;;;14.52;9.70;;;12.30;99.90;;;;;;5093437;28;20067;-84
2023/09/10 00:10:55;;;;;;;12.50;9.27;;;12.30;99.90;;;;;;5093198;28;20020;-83
2023/09/10 00:13:21;;;;;;;13.63;9.45;;;12.30;99.90;;;;;;5093802;28;20050;-82
2023/09/10 00:15:47;;;;;;;14.10;10.40;;;12.20;99.90;;;;;;5093339;28;20028;-83
2023/09/10 00:18:14;;;;;;;14.20;10.38;;;12.20;99.90;;;;;;5083359;28;20021;-83
2023/09/10 00:20:40;;;;;;;12.55;10.23;;;12.20;99.90;;;;;;5072429;28;20039;-84
2023/09/10 00:23:06;;;;;;;16.52;11.00;;;12.20;99.90;;;;;;5092102;28;20423;-83
2023/09/10 00:25:32;;;;;;;15.52;10.73;;;12.10;99.90;;;;;;5093386;28;20389;-83
2023/09/10 00:27:58;;;;;;;12.55;10.32;;;12.10;99.90;;;;;;5092970;28;20465;-84
2023/09/10 00:30:26;;;;;;;16.40;10.15;;;12.10;99.90;;;;;;5093121;28;20119;-84
2023/09/10 00:32:51;;;;;;;12.25;10.10;;;12.10;99.90;;;;;;5090234;28;20489;-84
2023/09/10 00:35:17;;;;;;;13.32;9.90;;;12.10;99.90;;;;;;5084245;28;20103;-84
2023/09/10 00:37:43;;;;;;;11.75;10.55;;;12.10;99.90;;;;;;5088487;28;20017;-83
2023/09/10 00:40:09;;;;;;;12.82;10.85;;;12.10;99.90;;;;;;5077386;28;20084;-84
2023/09/10 00:42:37;;;;;;;13.93;10.27;;;12.10;99.90;;;;;;5083694;28;20027;-84
2023/09/10 00:45:05;;;;;;;13.13;10.77;;;12.10;99.90;;;;;;5086796;28;20031;-84
2023/09/10 00:47:31;;;;;;;11.95;9.55;;;12.00;99.90;;;;;;5080216;28;20355;-84
2023/09/10 00:49:57;;;;;;;14.10;10.23;;;12.00;99.90;;;;;;5091472;28;20055;-84
2023/09/10 00:52:25;;;;;;;17.55;10.20;;;12.10;99.90;;;;;;5087168;28;20500;-84
2023/09/10 00:54:50;;;;;;;;;;;12.10;99.90;;;;;;5082667;28;20174;-83
2023/09/10 00:57:16;;;;;;;10.80;8.88;;;12.10;99.90;;;;;;5126085;28;19904;-83
2023/09/10 00:59:43;;;;;;;17.55;9.38;;;12.20;99.90;;;;;;5094672;28;20557;-83
2023/09/10 01:02:09;;;;;;;17.58;10.68;;;12.30;99.90;;;;;;5090813;28;20115;-82
2023/09/10 01:04:35;;;;;;;12.95;10.55;;;12.40;99.90;;;;;;5087552;28;20027;-83
2023/09/10 01:07:02;;;;;;;15.48;9.98;;;12.40;99.90;;;;;;5076932;28;20040;-84
2023/09/10 01:09:28;;;;;;;12.85;9.43;;;12.50;99.90;;;;;;5084863;28;20122;-83
2023/09/10 01:12:20;;;;;;;13.13;9.35;;;12.60;99.90;;;;;;5094106;28;20060;-83
2023/09/10 01:15:07;;;;;;;15.55;10.55;;;12.70;99.90;;;;;;5098982;28;20000;-82
2023/09/10 01:17:57;;;;;;;12.90;9.60;;;12.70;99.90;;;;;;5096917;28;20032;-83
2023/09/10 01:20:56;;;;;;;16.55;10.90;;;12.80;99.90;;;;;;5076797;28;20035;-83
2023/09/10 01:23:36;;;;;;;14.25;10.32;;;12.90;99.90;;;;;;5078217;28;20028;-84
2023/09/10 01:26:02;;;;;;;15.45;10.00;;;12.90;99.90;;;;;;5087909;28;20031;-83
2023/09/10 01:28:28;;;;;;;12.25;10.27;;;12.90;99.90;;;;;;5092895;28;20021;-83
2023/09/10 01:30:54;;;;;;;17.02;11.63;;;12.90;99.90;;;;;;5089858;28;20040;-84
2023/09/10 01:33:35;;;;;;;15.15;11.13;;;12.90;99.90;;;;;;5082490;28;20027;-84
2023/09/10 01:36:20;;;;;;;13.75;11.23;;;13.00;99.90;;;;;;5092544;28;20016;-83
2023/09/10 01:39:09;;;;;;;13.13;9.68;;;13.00;99.90;;;;;;5092928;28;20051;-85
2023/09/10 01:41:37;;;;;;;12.07;10.82;;;13.10;99.90;;;;;;5081547;28;20024;-84
2023/09/10 01:44:05;;;;;;;16.70;11.70;;;13.10;99.90;;;;;;5078446;28;20040;-83
2023/09/10 01:46:34;;;;;;;11.35;10.05;;;13.10;99.80;;;;;;5093829;28;20036;-84
2023/09/10 01:49:04;;;;;;;12.05;10.35;;;13.10;99.50;;;;;;5093259;28;20024;-84
2023/09/10 01:51:30;;;;;;;15.07;10.38;;;13.10;99.30;;;;;;5082853;28;20093;-84
2023/09/10 01:53:55;;;;;;;13.65;10.60;;;13.10;99.20;;;;;;5084900;28;20497;-83
2023/09/10 01:56:22;;;;;;;12.07;9.95;;;13.10;99.10;;;;;;5090410;28;20437;-83
2023/09/10 01:58:47;;;;;;;11.50;9.85;;;13.10;99.20;;;;;;5078734;28;20042;-84
2023/09/10 02:01:13;;;;;;;12.38;10.15;;;13.10;99.10;;;;;;5096197;28;20443;-84
2023/09/10 02:03:39;;;;;;;12.25;10.35;;;13.10;98.90;;;;;;5096671;28;20097;-83
2023/09/10 02:06:05;;;;;;;11.05;9.40;;;13.10;98.90;;;;;;5097491;28;20138;-84
2023/09/10 02:08:31;;;;;;;13.00;9.93;;;13.10;98.70;;;;;;5082809;28;20125;-84
2023/09/10 02:10:57;;;;;;;12.32;10.05;;;13.10;98.70;;;;;;5096783;28;20431;-83
2023/09/10 02:13:23;;;;;;;14.48;10.43;;;13.10;98.60;;;;;;5094901;28;20059;-82
2023/09/10 02:15:50;;;;;;;12.48;9.65;;;13.10;98.50;;;;;;5096460;28;20139;-84
2023/09/10 02:18:15;;;;;;;13.20;9.68;;;13.10;98.30;;;;;;5096124;28;20100;-84
2023/09/10 02:20:41;;;;;;;13.57;9.85;;;13.10;98.30;;;;;;5096175;28;20103;-84
2023/09/10 02:23:08;;;;;;;10.52;9.35;;;13.00;98.30;;;;;;5096161;28;20028;-84
2023/09/10 02:25:33;;;;;;;14.35;9.45;;;13.00;98.20;;;;;;5081795;28;20431;-83
2023/09/10 02:28:01;;;;;;;10.85;9.75;;;13.00;98.10;;;;;;5096284;28;20020;-82
2023/09/10 02:30:27;;;;;;;11.82;10.18;;;13.00;98.10;;;;;;5092471;28;20028;-82
2023/09/10 02:32:53;;;;;;;14.30;10.65;;;12.90;98.10;;;;;;5085294;28;20018;-81
2023/09/10 02:35:18;;;;;;;11.65;10.05;;;12.90;98.10;;;;;;5079152;28;20521;-81
2023/09/10 02:37:44;;;;;;;12.93;11.02;;;12.80;98.30;;;;;;5084107;28;20492;-81
2023/09/10 02:40:10;;;;;;;13.23;11.13;;;12.80;98.40;;;;;;5097323;28;20039;-82
2023/09/10 02:42:37;;;;;;;11.68;10.40;;;12.80;98.50;;;;;;5098634;28;20017;-83
2023/09/10 02:45:04;;;;;;;14.82;12.25;;;12.80;98.50;;;;;;5117099;28;20028;-83
2023/09/10 02:47:29;;;;;;;14.25;12.35;;;12.70;98.50;;;;;;5100966;28;20492;-82
2023/09/10 02:49:55;;;;;;;13.98;12.25;;;12.70;98.70;;;;;;5099928;28;20107;-82
2023/09/10 02:52:24;;;;;;;14.60;12.80;;;12.80;98.70;;;;;;5093293;28;20035;-82
2023/09/10 02:54:51;;;;;;;15.45;13.55;;;12.80;98.60;;;;;;5095668;28;20020;-83
2023/09/10 02:57:17;;;;;;;14.30;12.43;;;12.70;98.70;;;;;;5095450;28;20024;-83
2023/09/10 02:59:43;;;;;;;16.58;14.73;;;12.70;98.70;;;;;;5089531;28;20358;-84
2023/09/10 03:02:08;;;;;;;13.88;12.45;;;12.70;98.70;;;;;;5095107;28;20023;-82
2023/09/10 03:04:34;;;;;;;18.17;14.48;;;12.70;98.80;;;;;;5085499;28;20025;-83
2023/09/10 03:07:03;;;;;;;18.23;14.77;;;12.70;98.90;;;;;;5084991;28;20482;-82
2023/09/10 03:09:29;;;;;;;17.08;14.45;;;12.70;99.00;;;;;;5094793;28;20039;-82
2023/09/10 03:12:19;;;;;;;17.00;13.98;;;12.80;98.90;;;;;;5094779;28;20016;-83
2023/09/10 03:14:44;;;;;;;14.45;12.82;;;12.80;99.00;;;;;;5093468;28;20031;-83
2023/09/10 03:17:11;;;;;;;17.90;15.15;;;12.80;98.90;;;;;;5094799;28;20420;-83
2023/09/10 03:19:37;;;;;;;16.50;13.27;;;12.80;98.90;;;;;;5080489;28;20020;-83
2023/09/10 03:22:03;;;;;;;17.75;13.13;;;12.80;99.00;;;;;;5093149;28;20024;-84
2023/09/10 03:24:33;;;;;;;18.55;14.45;;;12.80;99.00;;;;;;5093273;28;20111;-83
2023/09/10 03:26:59;;;;;;;19.33;14.38;;;12.80;99.00;;;;;;5094018;28;20028;-83
2023/09/10 03:29:24;;;;;;;18.60;14.40;;;12.80;99.00;;;;;;5095193;28;20423;-84
2023/09/10 03:31:50;;;;;;;17.73;13.55;;;12.90;99.10;;;;;;5085251;28;20025;-83
2023/09/10 03:34:16;;;;;;;14.63;12.68;;;12.90;99.30;;;;;;5095204;28;20039;-83
2023/09/10 03:36:42;;;;;;;14.57;13.07;;;12.90;99.00;;;;;;5094954;28;20073;-84
2023/09/10 03:39:08;;;;;;;19.02;13.20;;;12.90;98.90;;;;;;5076312;28;20032;-83
2023/09/10 03:41:33;;;;;;;17.10;13.90;;;12.80;98.90;;;;;;5085790;28;20032;-85
2023/09/10 03:43:59;;;;;;;15.98;13.63;;;12.80;98.90;;;;;;5094700;28;20554;-83
2023/09/10 03:46:25;;;;;;;14.85;12.68;;;12.80;98.90;;;;;;5093489;28;20016;-83
2023/09/10 03:48:51;;;;;;;17.27;13.88;;;12.80;99.00;;;;;;5095251;28;20329;-82
2023/09/10 03:51:17;;;;;;;14.25;12.85;;;12.90;99.00;;;;;;5094777;28;20128;-83
2023/09/10 03:53:43;;;;;;;17.25;12.82;;;12.90;99.00;;;;;;5096444;28;20049;-84
2023/09/10 03:56:09;;;;;;;17.45;13.55;;;12.90;98.90;;;;;;5075666;28;20036;-84
2023/09/10 03:58:35;;;;;;;16.10;13.82;;;12.90;98.80;;;;;;5086773;28;20103;-82
2023/09/10 04:01:00;;;;;;;16.33;12.55;;;12.90;98.80;;;;;;5087419;28;20103;-84
2023/09/10 04:03:26;;;;;;;15.65;13.45;;;12.90;98.80;;;;;;5086082;28;20020;-81
2023/09/10 04:05:53;;;;;;;17.63;13.35;;;12.90;99.00;;;;;;5093407;28;20028;-83
2023/09/10 04:08:18;;;;;;;16.38;13.60;;;12.90;98.80;;;;;;5093275;28;20052;-83
2023/09/10 04:10:44;;;;;;;17.65;14.20;;;12.90;98.80;;;;;;5094439;28;20513;-83
2023/09/10 04:13:10;;;;;;;16.05;13.55;;;12.90;98.80;;;;;;5094485;28;20047;-84
2023/09/10 04:15:36;;;;;;;17.38;13.75;;;12.90;98.70;;;;;;5094941;28;20024;-82
2023/09/10 04:18:06;;;;;;;15.02;12.40;;;12.90;98.80;;;;;;5094008;28;20024;-82
2023/09/10 04:20:32;;;;;;;15.20;12.60;;;12.90;98.80;;;;;;5094836;28;20039;-83
2023/09/10 04:22:58;;;;;;;17.92;12.77;;;12.90;98.80;;;;;;5100347;28;20028;-82
2023/09/10 04:25:24;;;;;;;15.45;13.40;;;12.90;98.80;;;;;;5092448;28;20024;-82
2023/09/10 04:27:50;;;;;;;18.05;13.68;;;12.80;98.80;;;;;;5083700;28;20024;-82
2023/09/10 04:30:15;;;;;;;15.98;13.40;;;12.80;98.90;;;;;;5089500;28;20116;-83
2023/09/10 04:32:41;;;;;;;15.07;12.52;;;12.80;98.90;;;;;;5094697;28;20027;-83
2023/09/10 04:35:08;;;;;;;15.10;12.63;;;12.90;98.90;;;;;;5107179;28;20389;-83
2023/09/10 04:37:34;;;;;;;15.23;12.90;;;12.90;98.80;;;;;;5115314;28;20072;-83
2023/09/10 04:40:04;;;;;;;17.20;14.15;;;12.90;98.70;;;;;;5090740;28;20102;-84
2023/09/10 04:42:29;;;;;;;13.52;12.02;;;12.90;98.70;;;;;;5094481;28;20024;-82
2023/09/10 04:44:55;;;;;;;14.35;12.85;;;12.90;98.70;;;;;;5097152;28;20039;-83
2023/09/10 04:47:21;;;;;;;14.98;13.07;;;13.00;98.70;;;;;;5079333;28;20111;-83
2023/09/10 04:49:47;;;;;;;15.85;12.75;;;13.00;98.50;;;;;;5094606;28;20089;-83
2023/09/10 04:52:15;;;;;;;16.63;13.50;;;13.00;98.40;;;;;;5093566;28;20071;-84
2023/09/10 04:54:41;;;;;;;19.05;14.27;;;13.00;98.40;;;;;;5093225;28;20012;-85
2023/09/10 04:57:07;;;;;;;17.33;13.15;;;13.10;98.40;;;;;;5079870;28;20024;-82
2023/09/10 04:59:33;;;;;;;17.15;13.50;;;13.10;98.40;;;;;;5091589;28;20020;-81
2023/09/10 05:02:00;;;;;;;17.38;13.77;;;13.10;98.30;;;;;;5095877;28;20027;-83
2023/09/10 05:04:26;;;;;;;15.63;13.23;;;13.10;98.20;;;;;;5096015;28;20107;-82
2023/09/10 05:06:52;;;;;;;17.75;14.02;;;13.20;98.30;;;;;;5083797;28;20023;-82
2023/09/10 05:09:17;;;;;;;16.80;14.48;;;13.30;98.30;;;;;;5088262;28;20448;-84
2023/09/10 05:11:43;;;;;;;19.55;14.27;;;13.30;98.10;;;;;;5093706;28;20058;-83
2023/09/10 05:14:09;;;;;;;17.98;14.10;;;13.30;98.10;;;;;;5093159;28;20028;-83
2023/09/10 05:16:35;;;;;;;17.65;12.38;;;13.30;98.10;;;;;;5093217;28;20023;-83
2023/09/10 05:19:01;;;;;;;16.30;13.35;;;13.20;98.00;;;;;;5093103;28;20492;-83
2023/09/10 05:21:27;;;;;;;16.52;13.88;;;13.20;97.80;;;;;;5092180;28;20023;-81
2023/09/10 05:23:52;;;;;;;14.75;12.65;;;13.20;97.80;;;;;;5091881;28;20016;-83
2023/09/10 05:26:18;;;;;;;15.13;12.38;;;13.20;97.80;;;;;;5092693;28;20109;-83
2023/09/10 05:28:44;;;;;;;19.20;12.43;;;13.20;97.70;;;;;;5093140;28;20029;-82
2023/09/10 05:31:10;;;;;;;14.32;12.05;;;13.20;97.50;;;;;;5086704;28;20485;-83
2023/09/10 05:33:35;;;;;;;15.35;11.85;;;13.20;97.60;;;;;;5087827;28;20027;-83
2023/09/10 05:36:01;;;;;;;17.10;12.60;;;13.20;97.60;;;;;;5093339;28;20055;-82
2023/09/10 05:38:27;;;;;;;16.38;12.93;;;13.20;97.50;;;;;;5080847;28;20394;-82
2023/09/10 05:40:54;;;;;;;18.58;14.15;;;13.30;97.50;;;;;;5072653;28;20025;-83
2023/09/10 05:43:20;;;;;;;15.95;13.45;;;13.20;97.40;;;;;;5071478;28;20029;-83
2023/09/10 05:45:46;;;;;;;16.17;13.15;;;13.30;97.60;;;;;;5086355;28;20028;-83
2023/09/10 05:48:15;;;;;;;16.90;14.77;;;13.30;97.40;;;;;;5072474;28;20038;-82
2023/09/10 05:50:42;;;;;;;18.65;13.68;;;13.30;97.20;;;;;;5088089;28;20036;-84
2023/09/10 05:53:08;;;;;;;15.88;14.15;;;13.30;97.30;;;;;;5088672;28;20017;-82
2023/09/10 05:55:39;;;;;;;16.75;14.25;;;13.30;97.30;;;;;;5097990;28;20024;-84
2023/09/10 05:58:04;;;;;;;17.92;13.60;;;13.40;97.30;;;;;;5098868;28;20031;-84
2023/09/10 06:00:30;;;;;;;15.50;12.88;;;13.40;97.30;;;;;;5084476;28;20032;-84
2023/09/10 06:02:56;;;;;;;15.00;12.57;;;13.40;97.20;;;;;;5087753;28;20029;-84
2023/09/10 06:05:22;;;;;;;14.70;13.05;;;13.40;97.00;;;;;;5091201;28;20055;-83
2023/09/10 06:07:48;;;;;;;18.00;15.18;;;13.50;97.00;;;;;;5101696;28;20078;-82
2023/09/10 06:10:13;;;;;;;18.90;15.10;;;13.40;97.10;;;;;;5104836;28;20036;-82
2023/09/10 06:12:39;;;;;;;15.48;12.88;;;13.50;97.10;;;;;;5092968;28;20016;-82
2023/09/10 06:15:07;;;;;;;20.83;15.23;;;13.50;96.70;;;;;;5077128;28;20130;-83
2023/09/10 06:17:33;;;;;;;17.23;14.90;;;13.50;96.80;;;;;;5089315;28;20421;-80
2023/09/10 06:19:59;;;;;;;17.75;15.27;;;13.50;96.70;;;;;;5096030;28;20061;-81
2023/09/10 06:22:25;;;;;;;16.42;14.38;;;13.50;96.70;;;;;;5097492;28;20020;-83
2023/09/10 06:24:51;;;;;;;19.25;15.40;;;13.50;96.80;;;;;;5097006;28;20469;-82
2023/09/10 06:27:17;;;;;;;15.82;13.60;;;13.60;96.70;;;;;;5091645;28;20081;-80
2023/09/10 06:29:43;;;;;;;20.13;14.93;;;13.70;96.50;;;;;;5091888;28;20142;-82
2023/09/10 06:32:09;;;;;;;18.23;16.05;;;13.60;96.20;;;;;;5091067;28;20461;-82
2023/09/10 06:34:34;;;;;;;18.52;15.75;;;13.60;96.40;;;;;;5089441;28;20054;-81
2023/09/10 06:37:01;;;;;;;19.23;15.43;;;13.70;96.60;;;;;;5095310;28;20020;-83
2023/09/10 06:39:27;;;;;;;23.90;18.67;;;13.80;96.20;;;;;;5096126;28;20023;-82
2023/09/10 06:41:54;;;;;;;17.63;14.77;;;13.80;96.40;;;;;;5096301;28;20032;-84
2023/09/10 06:44:20;;;;;;;21.00;16.35;;;13.80;96.10;;;;;;5096810;28;20054;-81
2023/09/10 06:46:46;;;;;;;26.55;18.92;;;13.90;96.00;;;;;;5085198;28;20374;-81
2023/09/10 06:49:12;;;;;;;17.65;15.73;;;13.80;96.00;;;;;;5088824;28;20100;-82
2023/09/10 06:51:38;;;;;;;18.13;16.23;;;13.90;95.90;;;;;;5085512;28;20028;-82
2023/09/10 06:54:04;;;;;;;23.92;17.40;;;13.90;95.80;;;;;;5091332;28;20046;-83
2023/09/10 06:56:30;;;;;;;24.17;16.08;;;13.90;95.90;;;;;;5093525;28;20028;-81
2023/09/10 06:58:56;;;;;;;17.20;15.38;;;13.90;95.80;;;;;;5073568;28;20048;-82
2023/09/10 07:01:21;;;;;;;19.80;15.88;;;13.90;95.80;;;;;;5094561;28;20120;-82
2023/09/10 07:03:55;;;;;;;24.70;19.58;;;13.90;95.80;;;;;;5095254;28;20035;-82
2023/09/10 07:06:21;;;;;;;20.65;16.58;;;13.90;95.80;;;;;;5094147;28;20089;-82
2023/09/10 07:08:46;;;;;;;20.08;15.77;;;13.90;95.70;;;;;;5097699;28;20500;-81
2023/09/10 07:11:12;;;;;;;18.67;15.88;;;14.00;95.70;;;;;;5092694;28;20047;-82
2023/09/10 07:13:38;;;;;;;20.48;15.95;;;13.90;95.60;;;;;;5090044;28;20024;-82
2023/09/10 07:16:05;;;;;;;18.33;16.15;;;14.00;95.60;;;;;;5081249;28;20533;-82
2023/09/10 07:18:33;;;;;;;19.85;16.73;;;14.00;95.60;;;;;;5094040;28;20127;-83
2023/09/10 07:20:59;;;;;;;;;;;14.00;95.60;;;;;;5099699;28;20036;-81
2023/09/10 07:23:25;;;;;;;18.75;15.07;;;14.00;95.60;;;;;;5097313;28;19912;-83
2023/09/10 07:25:51;;;;;;;17.80;15.02;;;14.10;95.50;;;;;;5092829;28;20546;-81
2023/09/10 07:28:17;;;;;;;17.13;15.32;;;14.20;95.40;;;;;;5096472;28;20032;-82
2023/09/10 07:30:43;;;;;;;17.23;15.43;;;14.20;95.00;;;;;;5102977;28;20028;-84
2023/09/10 07:33:08;;;;;;;18.80;15.57;;;14.10;95.20;;;;;;5079228;28;20028;-82
2023/09/10 07:35:34;;;;;;;20.40;17.42;;;14.10;95.30;;;;;;5077131;28;20035;-83
2023/09/10 07:38:00;;;;;;;20.02;14.20;;;14.20;95.30;;;;;;5095033;28;20020;-83
2023/09/10 07:40:26;;;;;;;19.30;16.30;;;14.20;95.10;;;;;;5080891;28;20032;-82
2023/09/10 07:42:51;;;;;;;15.07;13.52;;;14.30;95.10;;;;;;5093832;28;20030;-83
2023/09/10 07:45:17;;;;;;;17.48;15.63;;;14.40;94.90;;;;;;5097908;28;20037;-83
2023/09/10 07:47:43;;;;;;;19.02;14.60;;;14.40;94.80;;;;;;5080293;28;20026;-84
2023/09/10 07:50:09;;;;;;;15.88;14.25;;;14.50;94.60;;;;;;5093969;28;20035;-82
2023/09/10 07:52:35;;;;;;;17.77;14.65;;;14.50;94.60;;;;;;5090992;28;20470;-83
2023/09/10 07:55:01;;;;;;;16.08;14.27;;;14.60;94.40;;;;;;5084011;28;20131;-83
2023/09/10 07:57:26;;;;;;;16.63;13.15;;;14.70;94.30;;;;;;5079036;28;20085;-82
2023/09/10 07:59:52;;;;;;;14.77;13.07;;;14.80;94.00;;;;;;5085203;28;20060;-82
2023/09/10 08:02:18;;;;;;;14.68;12.68;;;14.80;93.90;;;;;;5096296;28;20377;-83
2023/09/10 08:04:44;;;;;;;14.95;13.35;;;14.70;93.70;;;;;;5087070;28;20044;-84
2023/09/10 08:07:12;;;;;;;16.98;13.52;;;14.70;93.90;;;;;;5104174;28;20024;-83
2023/09/10 08:09:39;;;;;;;16.00;14.35;;;14.80;93.70;;;;;;5090208;28;20031;-81
2023/09/10 08:12:05;;;;;;;15.48;13.93;;;14.70;93.60;;;;;;5102983;28;20044;-83
2023/09/10 08:14:35;;;;;;;18.30;13.50;;;14.60;93.80;;;;;;5081998;28;20098;-85
2023/09/10 08:17:01;;;;;;;17.63;12.73;;;14.60;94.00;;;;;;5094401;28;20035;-82
2023/09/10 08:19:27;;;;;;;15.98;14.32;;;14.70;94.00;;;;;;5094133;28;20057;-82
2023/09/10 08:21:53;;;;;;;16.70;14.98;;;14.70;93.80;;;;;;5094661;28;20048;-82
2023/09/10 08:24:21;;;;;;;16.95;15.02;;;14.70;93.60;;;;;;5079869;28;20020;-83
2023/09/10 08:26:47;;;;;;;16.48;14.40;;;14.70;93.70;;;;;;5092766;28;20074;-83
2023/09/10 08:29:12;;;;;;;15.93;13.95;;;14.70;93.90;;;;;;5094214;28;20020;-85
2023/09/10 08:31:38;;;;;;;17.30;14.07;;;14.80;93.60;;;;;;5079029;28;20025;-84
2023/09/10 08:34:04;;;;;;;19.08;14.70;;;14.80;93.60;;;;;;5072170;28;20115;-83
2023/09/10 08:36:30;;;;;;;20.58;15.60;;;14.80;93.50;;;;;;5083097;28;20464;-83
2023/09/10 08:38:58;;;;;;;18.77;14.45;;;14.80;93.60;;;;;;5093154;28;20468;-85
2023/09/10 08:41:39;;;;;;;14.65;13.15;;;14.90;93.30;;;;;;5084269;28;20509;-85
2023/09/10 08:44:09;;;;;;;16.00;14.07;;;14.90;93.10;;;;;;5089559;28;20381;-85
2023/09/10 08:46:37;;;;;;;16.48;14.73;;;14.80;93.10;;;;;;5093861;28;20028;-84
2023/09/10 08:49:04;;;;;;;15.25;13.63;;;14.80;93.20;;;;;;5090362;28;20031;-83
2023/09/10 08:51:32;;;;;;;16.40;14.77;;;14.80;93.20;;;;;;5085414;28;20062;-85
2023/09/10 08:54:00;;;;;;;20.02;15.07;;;14.90;93.10;;;;;;5092911;28;20062;-86
2023/09/10 08:56:27;;;;;;;21.33;15.55;;;15.00;93.00;;;;;;5092846;28;20016;-83
2023/09/10 08:58:55;;;;;;;17.65;15.00;;;15.10;92.80;;;;;;5093986;28;20482;-85
2023/09/10 09:01:23;;;;;;;19.05;15.10;;;15.30;92.40;;;;;;5088145;28;20024;-87
2023/09/10 09:03:49;;;;;;;16.23;13.93;;;16.80;92.30;;;;;;5084695;28;20051;-86
2023/09/10 09:06:15;;;;;;;15.43;13.75;;;19.00;87.30;;;;;;5096099;28;20475;-86
2023/09/10 09:08:48;;;;;;;14.32;12.55;;;20.90;79.30;;;;;;5094294;28;20058;-85
2023/09/10 09:11:15;;;;;;;18.13;16.33;;;22.00;73.60;;;;;;5090377;28;20054;-84
2023/09/10 09:13:43;;;;;;;;;;;22.90;69.40;;;;;;5082673;28;20095;-85
2023/09/10 09:16:11;;;;;;;15.10;13.30;;;23.70;69.50;;;;;;5093254;28;19911;-86
2023/09/10 09:18:39;;;;;;;15.38;13.68;;;24.50;63.60;;;;;;5090185;28;20020;-87
2023/09/10 09:21:19;;;;;;;14.55;11.95;;;25.30;61.40;;;;;;5093897;28;20017;-84
2023/09/10 09:24:01;;;;;;;13.80;12.40;;;26.70;60.30;;;;;;5091813;28;20024;-85
2023/09/10 09:26:28;;;;;;;12.55;11.45;;;26.80;56.60;;;;;;5094802;28;20016;-84
2023/09/10 09:28:57;;;;;;;14.60;11.63;;;27.20;54.40;;;;;;5089135;28;20055;-86
2023/09/10 09:31:24;;;;;;;13.05;11.75;;;27.50;54.30;;;;;;5083742;28;20028;-85
2023/09/10 09:33:51;;;;;;;;;;;27.90;53.20;;;;;;5089522;28;20470;-87
2023/09/10 09:36:17;;;;;;;13.50;11.80;;;28.50;54.90;;;;;;5087615;28;20044;-85
2023/09/10 09:38:46;;;;;;;11.80;10.52;;;28.80;50.20;;;;;;5099228;28;20507;-95
2023/09/10 09:41:15;;;;;;;12.40;11.20;;;28.70;49.90;;;;;;5094772;28;20144;-86
2023/09/10 09:43:41;;;;;;;12.85;11.45;;;28.90;50.00;;;;;;5092848;28;20387;-85
2023/09/10 09:46:06;;;;;;;15.63;10.83;;;29.40;48.60;;;;;;5093073;28;20115;-85
2023/09/10 09:48:34;;;;;;;15.47;11.97;;;29.50;48.40;;;;;;5078095;28;20048;-85
2023/09/10 09:51:01;;;;;;;12.98;10.77;;;30.10;47.70;;;;;;5078654;28;20071;-90
2023/09/10 09:53:30;;;;;;;14.95;10.95;;;30.80;47.00;;;;;;5098473;28;20034;-85
2023/09/10 09:56:01;;;;;;;13.32;11.40;;;31.30;45.60;;;;;;5091127;28;20020;-90
2023/09/10 09:58:30;;;;;;;12.95;9.95;;;31.20;45.50;;;;;;5104353;28;20385;-88
2023/09/10 10:00:57;;;;;;;12.73;10.52;;;;;;;;;;5113001;28;20023;-91
2023/09/10 10:03:23;;;;;;;14.38;10.27;;;;;;;;;;5094158;28;20513;-93
2023/09/10 10:05:50;;;;;;;12.63;11.05;;;;;;;;;;5088680;28;20047;-90
2023/09/10 10:08:29;;;;;;;12.75;10.57;;;31.00;45.00;;;;;;5090469;28;20110;-93
2023/09/10 10:11:10;;;;;;;14.65;11.50;;;32.10;44.00;;;;;;5108435;28;20063;-96
2023/09/10 10:13:48;;;;;;;12.02;10.85;;;32.40;43.80;;;;;;5100645;28;20024;-96
2023/09/10 10:16:15;;;;;;;10.52;9.52;;;31.90;43.20;;;;;;5108407;28;20019;-96
2023/09/10 10:18:44;;;;;;;11.38;10.32;;;31.70;43.30;;;;;;5093797;28;20067;-92
2023/09/10 10:21:14;;;;;;;11.95;10.65;;;30.90;42.80;;;;;;5095929;28;20435;-92
2023/09/10 10:23:43;;;;;;;13.40;10.50;;;28.90;44.80;;;;;;5116673;28;20036;-95
2023/09/10 10:26:16;;;;;;;12.55;10.25;;;26.80;48.20;;;;;;5105108;28;20068;-94
2023/09/10 10:28:48;;;;;;;13.32;11.88;;;25.30;51.10;;;;;;5100785;28;20035;-93
2023/09/10 10:31:29;;;;;;;13.30;11.80;;;24.30;53.10;;;;;;5099245;28;20039;-93
2023/09/10 10:34:16;;;;;;;14.88;12.43;;;23.30;55.50;;;;;;5100468;28;20012;-94
2023/09/10 10:37:25;;;;;;;15.93;12.88;;;22.40;57.50;;;;;;5088635;28;20078;-95
2023/09/10 10:40:30;;;;;;;17.83;13.10;;;21.60;59.90;;;;;;5111389;28;20099;-89
2023/09/10 10:43:25;;;;;;;17.40;12.95;;;20.80;61.90;;;;;;5106937;28;20032;-90
2023/09/10 10:45:55;;;;;;;13.90;12.02;;;20.20;63.70;;;;;;5103724;28;20100;-86
2023/09/10 10:48:26;;;;;;;14.02;12.52;;;19.80;65.50;;;;;;5092755;28;20078;-91
2023/09/10 10:50:56;;;;;;;17.05;13.57;;;19.50;66.60;;;;;;5092191;28;20056;-95
2023/09/10 10:53:24;;;;;;;12.60;10.90;;;19.30;67.40;;;;;;5101375;28;20035;-92
2023/09/10 10:55:53;;;;;;;14.32;12.18;;;19.30;67.70;;;;;;5111562;28;20029;-90
2023/09/10 10:58:21;;;;;;;16.30;14.60;;;19.10;68.20;;;;;;5105340;28;20272;-93
2023/09/10 11:00:48;;;;;;;13.82;12.05;;;18.90;68.90;;;;;;5117760;28;20034;-87
2023/09/10 11:03:15;;;;;;;16.40;12.52;;;18.70;69.70;;;;;;5105718;28;20092;-84
2023/09/10 11:06:04;;;;;;;14.40;12.15;;;18.70;70.20;;;;;;5089148;28;20035;-86
2023/09/10 11:08:30;;;;;;;19.02;11.88;;;18.70;70.40;;;;;;5085569;28;20055;-86
2023/09/10 11:10:58;;;;;;;20.10;10.75;;;18.70;70.80;;;;;;5076262;28;20035;-85
2023/09/10 11:13:24;;;;;;;14.88;11.00;;;18.70;71.50;;;;;;5088159;28;20028;-85
2023/09/10 11:16:05;;;;;;;14.02;10.07;;;18.60;71.60;;;;;;5090007;28;20101;-86
2023/09/10 11:18:37;;;;;;;14.48;11.60;;;18.60;71.70;;;;;;5095133;28;20752;-86
2023/09/10 11:21:14;;;;;;;14.40;11.10;;;18.60;71.90;;;;;;5094208;28;20370;-84
2023/09/10 11:24:12;;;;;;;13.05;10.80;;;18.60;72.30;;;;;;5087146;28;20024;-85
2023/09/10 11:26:38;;;;;;;12.10;10.80;;;18.60;72.20;;;;;;5094754;28;20016;-85
2023/09/10 11:29:04;;;;;;;13.98;11.27;;;18.60;72.00;;;;;;5097441;28;20024;-86
2023/09/10 11:31:33;;;;;;;14.35;11.40;;;18.50;72.60;;;;;;5088855;28;20035;-84
2023/09/10 11:34:17;;;;;;;13.20;11.90;;;18.50;72.80;;;;;;5091522;28;20028;-85
2023/09/10 11:36:51;;;;;;;16.50;11.73;;;18.50;73.20;;;;;;5089495;28;20024;-86
2023/09/10 11:39:18;;;;;;;14.95;11.30;;;18.50;73.80;;;;;;5081053;28;20071;-86
2023/09/10 11:41:46;;;;;;;14.35;11.43;;;18.60;73.60;;;;;;5091077;28;20027;-87
2023/09/10 11:44:11;;;;;;;13.55;10.35;;;18.70;73.50;;;;;;5089444;28;20029;-84
2023/09/10 11:46:38;;;;;;;16.33;13.50;;;18.80;73.50;;;;;;5091522;28;20028;-88
2023/09/10 11:49:04;;;;;;;16.00;12.82;;;18.80;73.30;;;;;;5113781;28;20056;-88
2023/09/10 11:51:30;;;;;;;14.68;11.43;;;18.90;73.20;;;;;;5102205;28;20028;-86
2023/09/10 11:53:59;;;;;;;16.38;11.55;;;18.90;73.10;;;;;;5091323;28;20068;-88
2023/09/10 11:56:26;;;;;;;14.45;11.63;;;18.90;73.30;;;;;;5088753;28;20028;-86
2023/09/10 11:58:55;;;;;;;15.18;12.60;;;18.90;73.40;;;;;;5076853;28;20039;-88
2023/09/10 12:01:21;;;;;;;16.75;12.35;;;18.90;73.10;;;;;;5097784;28;20063;-89
2023/09/10 12:03:47;;;;;;;14.20;11.27;;;18.80;73.40;;;;;;5088352;28;20029;-87
2023/09/10 12:06:13;;;;;;;12.00;10.68;;;18.80;73.80;;;;;;5089984;28;20051;-90
2023/09/10 12:08:39;;;;;;;17.63;11.25;;;18.70;74.00;;;;;;5081571;28;20056;-88
2023/09/10 12:11:08;;;;;;;14.65;11.73;;;18.70;74.00;;;;;;5113145;28;20028;-88
2023/09/10 12:13:36;;;;;;;13.07;10.80;;;18.70;73.80;;;;;;5104160;28;20016;-89
2023/09/10 12:16:03;;;;;;;15.48;12.48;;;18.60;74.00;;;;;;5093221;28;20054;-89
2023/09/10 12:18:29;;;;;;;14.93;11.63;;;18.70;74.70;;;;;;5097599;28;20028;-86
2023/09/10 12:20:58;;;;;;;15.60;11.20;;;18.70;74.50;;;;;;5095862;28;20036;-89
2023/09/10 12:23:25;;;;;;;15.27;11.77;;;18.70;74.30;;;;;;5089076;28;20019;-86
2023/09/10 12:25:55;;;;;;;15.75;11.68;;;18.70;74.50;;;;;;5088811;28;20027;-87
2023/09/10 12:28:21;;;;;;;12.70;8.50;;;18.70;74.40;;;;;;5088457;28;20027;-86
2023/09/10 12:30:47;;;;;;;12.20;8.45;;;18.80;73.30;;;;;;5095441;28;20024;-89
2023/09/10 12:33:14;;;;;;;13.80;8.10;;;19.10;73.00;;;;;;5093138;28;20103;-87
2023/09/10 12:35:40;;;;;;;9.80;7.70;;;19.40;71.50;;;;;;5096460;28;20465;-87